.
WxDataArchive / Data Records for 2012-09-22
2012-09-21 September 2012 2012-09-23

Data Records for Saturday, 22 September 2012

Time	Temp	Chill	HIndex	Humid	Dewpt	 Wind 	HiWind	WindDir	Rain 	Barom 
-----	----	-----	------	-----	-----	------	------	-------	-----	----- 
00:00	51.4	51.4	51.4	94	49.7	0	1	45	0.00	29.754 
00:05	51.6	51.6	51.6	94	49.9	0	0	---	0.00	29.754 
00:10	51.6	51.6	51.6	94	49.9	0	0	---	0.00	29.754 
00:15	51.6	51.6	51.6	94	49.9	0	0	---	0.00	29.759 
00:20	51.6	51.6	51.6	94	49.9	0	0	---	0.00	29.759 
00:25	51.6	51.6	51.6	94	49.9	0	0	---	0.00	29.759 
00:30	51.6	51.6	51.6	94	49.9	0	0	---	0.00	29.766 
00:35	51.6	51.6	51.6	94	49.9	0	0	---	0.00	29.766 
00:40	51.6	51.6	51.6	94	49.9	0	0	---	0.00	29.766 
00:45	51.6	51.6	51.6	94	49.9	0	1	45	0.00	29.759 
00:50	51.6	51.6	51.6	94	49.9	0	1	45	0.00	29.759 
00:55	51.6	51.6	51.6	94	49.9	0	1	45	0.00	29.759 
01:00	51.6	51.6	51.6	94	49.9	0	0	---	0.00	29.763 
01:05	51.6	51.6	51.6	94	49.9	0	0	---	0.00	29.763 
01:10	51.6	51.6	51.6	94	49.9	0	0	---	0.00	29.763 
01:15	51.6	51.6	51.6	94	49.9	0	1	45	0.00	29.753 
01:20	51.6	51.6	51.6	94	49.9	0	0	---	0.00	29.753 
01:25	51.6	51.6	51.6	94	49.9	0	1	45	0.00	29.753 
01:30	51.6	51.6	51.6	94	49.9	0	1	45	0.00	29.744 
01:35	51.4	51.4	51.4	94	49.7	0	0	---	0.00	29.744 
01:40	51.4	51.4	51.4	94	49.7	0	0	---	0.00	29.744 
01:45	51.4	51.4	51.4	95	50.0	0	1	45	0.00	29.748 
01:50	51.4	51.4	51.4	95	50.0	0	0	---	0.00	29.748 
01:55	51.4	51.4	51.4	95	50.0	0	0	---	0.00	29.748 
02:00	51.6	51.6	51.6	95	50.2	0	0	---	0.00	29.752 
02:05	51.6	51.6	51.6	95	50.2	0	0	---	0.00	29.752 
02:10	51.6	51.6	51.6	95	50.2	0	0	---	0.00	29.752 
02:15	51.6	51.6	51.6	95	50.2	0	0	---	0.00	29.759 
02:20	51.6	51.6	51.6	95	50.2	0	0	---	0.00	29.759 
02:25	51.7	51.7	51.7	95	50.3	0	0	---	0.00	29.759 
02:30	51.7	51.7	51.7	95	50.3	0	0	---	0.00	29.756 
02:35	51.7	51.7	51.7	95	50.3	0	0	---	0.00	29.756 
02:40	51.6	51.6	51.6	95	50.2	0	0	---	0.00	29.756 
02:45	51.4	51.4	51.4	95	50.0	0	0	---	0.00	29.752 
02:50	51.3	51.3	51.3	95	49.9	0	0	---	0.00	29.752 
02:55	51.1	51.1	51.1	95	49.7	0	0	---	0.00	29.752 
03:00	51.0	51.0	51.0	95	49.6	0	0	---	0.00	29.750 
03:05	50.8	50.8	50.8	95	49.4	0	0	---	0.00	29.750 
03:10	50.7	50.7	50.7	95	49.3	0	0	---	0.00	29.750 
03:15	50.4	50.4	50.4	94	48.7	0	0	---	0.00	29.753 
03:20	50.1	50.1	50.1	95	48.7	0	0	---	0.00	29.753 
03:25	49.9	49.9	49.9	94	48.2	0	0	---	0.00	29.753 
03:30	49.6	49.6	49.6	94	47.9	0	0	---	0.00	29.755 
03:35	49.5	49.5	49.5	94	47.8	0	0	---	0.00	29.755 
03:40	49.4	49.4	49.4	94	47.7	0	0	---	0.00	29.755 
03:45	49.2	49.2	49.2	94	47.5	0	0	---	0.00	29.755 
03:50	48.9	48.9	48.9	94	47.2	0	0	---	0.00	29.755 
03:55	48.6	48.6	48.6	94	47.0	0	0	---	0.00	29.755 
04:00	48.5	48.5	48.5	95	47.1	0	0	---	0.00	29.756 
04:05	48.3	48.3	48.3	95	46.9	0	0	---	0.00	29.756 
04:10	48.2	48.2	48.2	95	46.8	0	0	---	0.00	29.756 
04:15	48.0	48.0	48.0	95	46.6	0	0	---	0.00	29.768 
04:20	47.9	47.9	47.9	95	46.5	0	0	---	0.00	29.768 
04:25	47.6	47.6	47.6	95	46.2	0	0	---	0.00	29.768 
04:30	47.4	47.4	47.4	95	46.0	0	0	---	0.00	29.774 
04:35	47.3	47.3	47.3	95	45.9	0	0	---	0.00	29.774 
04:40	47.1	47.1	47.1	95	45.7	0	0	---	0.00	29.774 
04:45	47.0	47.0	47.0	95	45.6	0	0	---	0.00	29.773 
04:50	47.0	47.0	47.0	95	45.6	0	0	---	0.00	29.773 
04:55	46.8	46.8	46.8	95	45.4	0	0	---	0.00	29.773 
05:00	46.8	46.8	46.8	95	45.4	0	0	---	0.00	29.779 
05:05	46.8	46.8	46.8	95	45.4	0	0	---	0.00	29.779 
05:10	46.8	46.8	46.8	95	45.4	0	0	---	0.00	29.779 
05:15	46.8	46.8	46.8	95	45.4	0	0	---	0.00	29.791 
05:20	46.7	46.7	46.7	95	45.3	0	0	---	0.00	29.791 
05:25	46.7	46.7	46.7	95	45.3	0	0	---	0.00	29.791 
05:30	46.7	46.7	46.7	95	45.3	0	0	---	0.00	29.794 
05:35	47.0	47.0	47.0	95	45.6	0	0	---	0.00	29.794 
05:40	47.3	47.3	47.3	95	45.9	0	0	---	0.00	29.794 
05:45	47.6	47.6	47.6	96	46.5	0	0	---	0.00	29.801 
05:50	47.9	47.9	47.9	95	46.5	0	1	45	0.00	29.801 
05:55	48.0	48.0	48.0	96	46.9	0	0	---	0.00	29.801 
06:00	48.2	48.2	48.2	95	46.8	0	0	---	0.00	29.809 
06:05	48.5	48.5	48.5	96	47.4	0	1	45	0.00	29.809 
06:10	48.9	48.9	48.9	96	47.8	0	2	45	0.00	29.809 
06:15	49.1	49.1	49.1	96	48.0	0	1	45	0.00	29.811 
06:20	49.2	49.2	49.2	96	48.1	0	0	---	0.00	29.811 
06:25	49.2	49.2	49.2	96	48.1	0	1	45	0.00	29.811 
06:30	49.2	49.2	49.2	96	48.1	0	1	45	0.00	29.810 
06:35	49.2	49.2	49.2	96	48.1	0	2	45	0.00	29.810 
06:40	49.2	49.2	49.2	96	48.1	0	1	45	0.00	29.810 
06:45	49.2	49.2	49.2	96	48.1	0	1	45	0.00	29.810 
06:50	49.2	49.2	49.2	96	48.1	0	1	45	0.00	29.810 
06:55	49.2	49.2	49.2	96	48.1	0	1	45	0.00	29.810 
07:00	49.2	49.2	49.2	96	48.1	0	2	0	0.00	29.808 
07:05	49.1	49.1	49.1	96	48.0	0	2	0	0.00	29.808 
07:10	49.1	49.1	49.1	96	48.0	0	1	0	0.00	29.808 
07:15	49.1	49.1	49.1	96	48.0	0	1	0	0.00	29.822 
07:20	49.2	49.2	49.2	96	48.1	0	1	0	0.00	29.822 
07:25	49.2	49.2	49.2	96	48.1	0	1	0	0.00	29.822 
07:30	49.2	49.2	49.2	96	48.1	0	1	0	0.00	29.829 
07:35	49.2	49.2	49.2	96	48.1	0	3	315	0.00	29.829 
07:40	49.2	49.2	49.2	96	48.1	0	2	315	0.00	29.829 
07:45	49.1	49.1	49.1	96	48.0	0	2	315	0.00	29.833 
07:50	49.1	49.1	49.1	96	48.0	0	1	315	0.00	29.833 
07:55	48.9	48.9	48.9	96	47.8	0	1	315	0.00	29.833 
08:00	48.9	48.9	48.9	96	47.8	0	1	315	0.00	29.842 
08:05	48.9	48.9	48.9	96	47.8	0	1	315	0.00	29.842 
08:10	48.9	48.9	48.9	96	47.8	0	0	---	0.00	29.842 
08:15	48.8	48.8	48.8	96	47.7	0	1	315	0.01	29.843 
08:20	48.8	48.8	48.8	96	47.7	0	1	315	0.00	29.843 
08:25	48.8	48.8	48.8	96	47.7	0	1	315	0.00	29.843 
08:30	48.9	48.9	48.9	96	47.8	0	2	315	0.00	29.839 
08:35	48.9	48.9	48.9	96	47.8	0	1	315	0.00	29.839 
08:40	49.1	49.1	49.1	96	48.0	0	1	315	0.00	29.839 
08:45	49.2	49.2	49.2	96	48.1	0	1	315	0.00	29.847 
08:50	49.5	49.5	49.5	96	48.4	0	1	315	0.00	29.847 
08:55	49.9	49.9	49.9	96	48.8	0	2	315	0.00	29.847 
09:00	50.2	50.2	50.2	96	49.1	0	2	315	0.00	29.846 
09:05	50.4	50.4	50.4	96	49.3	0	2	315	0.00	29.846 
09:10	50.4	50.4	50.4	96	49.3	1	3	315	0.00	29.846 
09:15	50.4	50.4	50.4	96	49.3	0	2	315	0.00	29.850 
09:20	50.2	50.2	50.2	96	49.1	1	3	270	0.00	29.850 
09:25	50.2	50.2	50.2	96	49.1	1	4	270	0.00	29.850 
09:30	50.2	50.2	50.2	96	49.1	1	3	270	0.00	29.856 
09:35	50.4	50.4	50.4	96	49.3	0	2	270	0.00	29.856 
09:40	50.4	50.4	50.4	96	49.3	1	3	270	0.00	29.856 
09:45	50.2	50.2	50.2	96	49.1	1	3	292	0.00	29.860 
09:50	50.2	50.2	50.2	96	49.1	1	3	292	0.00	29.860 
09:55	50.2	50.2	50.2	96	49.1	0	2	292	0.00	29.860 
10:00	50.2	50.2	50.2	95	48.8	1	3	292	0.00	29.859 
10:05	50.1	50.1	50.1	95	48.7	2	4	292	0.00	29.859 
10:10	50.1	50.1	50.1	95	48.7	1	3	292	0.00	29.859 
10:15	50.2	50.2	50.2	95	48.8	1	3	292	0.00	29.863 
10:20	50.2	50.2	50.2	95	48.8	1	4	292	0.00	29.863 
10:25	50.2	50.2	50.2	95	48.8	1	3	292	0.00	29.863 
10:30	50.2	50.2	50.2	95	48.8	1	3	292	0.00	29.868 
10:35	50.4	50.4	50.4	95	49.0	0	2	292	0.00	29.868 
10:40	50.4	50.4	50.4	95	49.0	1	4	292	0.00	29.868 
10:45	50.5	50.5	50.5	95	49.1	1	3	270	0.00	29.876 
10:50	50.5	50.5	50.5	95	49.1	1	3	270	0.00	29.876 
10:55	50.5	50.5	50.5	94	48.8	1	4	270	0.00	29.876 
11:00	50.7	50.7	50.7	94	49.0	0	3	270	0.00	29.863 
11:05	51.0	51.0	51.0	94	49.3	1	2	270	0.00	29.863 
11:10	51.3	51.3	51.3	95	49.9	1	3	270	0.00	29.863 
11:15	52.0	52.0	52.0	95	50.6	1	2	270	0.00	29.857 
11:20	52.6	52.6	52.6	95	51.2	1	3	270	0.00	29.857 
11:25	52.9	52.9	52.9	94	51.2	0	3	270	0.00	29.857 
11:30	52.8	52.8	52.8	93	50.8	1	3	270	0.00	29.860 
11:35	52.6	52.6	52.6	93	50.6	0	3	270	0.00	29.860 
11:40	52.6	52.6	52.6	93	50.6	0	2	68	0.00	29.860 
11:45	53.8	53.8	53.8	94	52.1	0	2	68	0.00	29.843 
11:50	54.5	54.5	54.5	92	52.2	0	2	68	0.00	29.843 
11:55	54.4	54.4	54.4	91	51.8	1	4	68	0.00	29.843 
12:00	53.9	53.9	53.9	89	50.7	1	2	292	0.00	29.844 
12:05	53.6	53.6	53.6	89	50.4	0	3	292	0.00	29.844 
12:10	53.5	53.5	53.5	89	50.3	0	1	292	0.00	29.844 
12:15	53.8	53.8	53.8	90	50.9	0	1	270	0.00	29.841 
12:20	54.5	54.5	54.5	90	51.6	0	2	270	0.00	29.841 
12:25	55.1	55.1	55.1	89	51.9	1	3	270	0.00	29.841 
12:30	55.1	55.1	55.1	87	51.3	1	3	248	0.00	29.841 
12:35	55.0	55.0	55.0	86	50.9	0	2	270	0.00	29.841 
12:40	55.4	55.4	55.4	86	51.3	1	3	248	0.00	29.841 
12:45	56.5	56.5	56.5	86	52.4	1	4	248	0.00	29.831 
12:50	56.9	56.9	56.9	81	51.1	1	5	270	0.00	29.831 
12:55	56.9	56.9	56.9	81	51.1	0	3	22	0.00	29.831 
13:00	56.7	56.7	56.7	80	50.6	0	2	248	0.00	29.838 
13:05	56.7	56.7	56.7	81	50.9	0	2	270	0.00	29.838 
13:10	56.7	56.7	56.7	81	50.9	0	1	270	0.00	29.838 
13:15	56.7	56.7	56.7	81	50.9	0	2	248	0.00	29.822 
13:20	56.6	56.6	56.6	81	50.8	1	4	248	0.00	29.822 
13:25	56.3	56.3	56.3	81	50.5	1	3	248	0.01	29.822 
13:30	55.9	55.9	55.9	82	50.5	2	5	248	0.00	29.841 
13:35	55.4	55.4	55.4	82	50.0	4	7	270	0.00	29.841 
13:40	55.1	55.1	55.1	82	49.7	3	10	270	0.00	29.841 
13:45	54.2	54.2	54.2	84	49.5	4	10	270	0.03	29.858 
13:50	52.6	52.6	52.6	86	48.5	4	9	270	0.01	29.858 
13:55	51.9	51.9	51.9	88	48.5	3	7	270	0.02	29.858 
14:00	52.2	52.2	52.2	90	49.4	2	5	270	0.00	29.864 
14:05	52.8	52.8	52.8	91	50.2	2	6	270	0.00	29.864 
14:10	53.3	53.3	53.3	91	50.7	3	6	270	0.00	29.864 
14:15	53.2	53.2	53.2	90	50.3	4	7	270	0.00	29.862 
14:20	53.3	53.3	53.3	88	49.8	3	7	315	0.00	29.862 
14:25	53.8	53.8	53.8	86	49.7	3	6	270	0.00	29.862 
14:30	53.3	53.3	53.3	78	46.6	5	11	270	0.00	29.887 
14:35	51.3	51.3	51.3	75	43.6	6	13	315	0.00	29.887 
14:40	49.9	47.5	49.9	77	43.0	6	12	292	0.00	29.887 
14:45	49.6	47.7	49.6	79	43.4	5	11	270	0.00	29.922 
14:50	49.5	47.6	49.5	81	43.9	5	10	270	0.00	29.922 
14:55	48.9	48.9	48.9	84	44.3	3	8	270	0.01	29.922 
15:00	48.3	48.3	48.3	86	44.3	2	6	270	0.02	29.956 
15:05	47.1	47.1	47.1	85	42.8	2	6	292	0.04	29.956 
15:10	45.7	45.7	45.7	86	41.8	1	7	315	0.01	29.956 
15:15	45.2	45.2	45.2	87	41.6	2	7	270	0.01	29.979 
15:20	45.2	45.2	45.2	89	42.2	0	3	248	0.00	29.979 
15:25	45.5	45.5	45.5	90	42.7	1	4	248	0.00	29.979 
15:30	46.0	46.0	46.0	91	43.5	0	2	315	0.00	29.979 
15:35	46.4	46.4	46.4	91	43.9	1	5	270	0.00	29.979 
15:40	46.5	46.5	46.5	91	44.0	2	4	292	0.00	29.979 
15:45	46.5	46.5	46.5	91	44.0	2	7	292	0.01	29.994 
15:50	46.5	46.5	46.5	91	44.0	1	6	292	0.00	29.994 
15:55	46.4	46.4	46.4	91	43.9	1	5	292	0.00	29.994 
16:00	46.2	46.2	46.2	91	43.7	1	5	292	0.00	30.005 
16:05	46.5	46.5	46.5	91	44.0	2	5	292	0.00	30.005 
16:10	46.8	46.8	46.8	91	44.3	1	4	292	0.00	30.005 
16:15	46.8	46.8	46.8	90	44.0	1	4	292	0.00	30.008 
16:20	47.3	47.3	47.3	91	44.8	1	3	270	0.00	30.008 
16:25	47.7	47.7	47.7	90	44.9	0	3	270	0.00	30.008 
16:30	48.0	48.0	48.0	89	44.9	1	3	270	0.00	30.006 
16:35	48.5	48.5	48.5	88	45.1	1	3	270	0.00	30.006 
16:40	48.9	48.9	48.9	87	45.2	1	4	270	0.00	30.006 
16:45	49.4	49.4	49.4	85	45.1	1	3	270	0.00	30.007 
16:50	49.6	49.6	49.6	83	44.7	1	4	270	0.00	30.007 
16:55	49.8	49.8	49.8	79	43.6	1	4	270	0.00	30.007 
17:00	50.4	50.4	50.4	78	43.8	1	3	270	0.00	30.012 
17:05	50.5	50.5	50.5	75	42.9	2	5	292	0.00	30.012 
17:10	50.7	50.7	50.7	74	42.7	2	5	292	0.00	30.012 
17:15	50.8	50.8	50.8	73	42.5	2	5	248	0.00	30.022 
17:20	51.0	51.0	51.0	74	43.0	2	5	270	0.00	30.022 
17:25	51.1	51.1	51.1	73	42.7	2	5	292	0.00	30.022 
17:30	51.1	51.1	51.1	73	42.7	2	4	248	0.00	30.024 
17:35	51.1	51.1	51.1	74	43.1	1	4	292	0.00	30.024 
17:40	51.4	51.4	51.4	74	43.4	2	4	292	0.00	30.024 
17:45	51.6	51.6	51.6	73	43.2	2	4	248	0.00	30.034 
17:50	51.6	51.6	51.6	73	43.2	1	4	270	0.00	30.034 
17:55	51.6	51.6	51.6	72	42.9	1	4	270	0.00	30.034 
18:00	51.9	51.9	51.9	72	43.2	1	4	270	0.00	30.040 
18:05	52.0	52.0	52.0	71	42.9	1	4	315	0.00	30.040 
18:10	52.2	52.2	52.2	70	42.7	2	6	270	0.00	30.040 
18:15	52.2	52.2	52.2	69	42.3	1	4	270	0.00	30.038 
18:20	52.3	52.3	52.3	69	42.4	1	4	292	0.00	30.038 
18:25	52.3	52.3	52.3	69	42.4	2	4	248	0.00	30.038 
18:30	52.3	52.3	52.3	69	42.4	1	3	248	0.00	30.053 
18:35	52.5	52.5	52.5	69	42.6	1	2	248	0.00	30.053 
18:40	52.5	52.5	52.5	69	42.6	1	3	248	0.00	30.053 
18:45	52.5	52.5	52.5	68	42.2	1	3	315	0.00	30.058 
18:50	52.5	52.5	52.5	68	42.2	1	3	292	0.00	30.058 
18:55	52.3	52.3	52.3	68	42.1	1	4	292	0.00	30.058 
19:00	52.3	52.3	52.3	68	42.1	0	0	---	0.00	30.058 
19:05	52.2	52.2	52.2	68	42.0	0	2	292	0.00	30.066 
19:10	52.0	52.0	52.0	69	42.1	0	2	315	0.00	30.066 
19:15	51.9	51.9	51.9	69	42.1	0	1	315	0.00	30.067 
19:20	51.7	51.7	51.7	69	41.9	0	2	315	0.00	30.067 
19:25	51.6	51.6	51.6	70	42.1	0	1	315	0.00	30.067 
19:30	51.3	51.3	51.3	71	42.2	0	0	---	0.00	30.070 
19:35	51.0	51.0	51.0	72	42.3	0	0	---	0.00	30.070 
19:40	50.5	50.5	50.5	74	42.5	0	0	---	0.00	30.070 
19:45	50.2	50.2	50.2	75	42.6	0	0	---	0.00	30.076 
19:50	49.9	49.9	49.9	76	42.6	0	0	---	0.00	30.076 
19:55	49.6	49.6	49.6	76	42.3	0	0	---	0.00	30.076 
20:00	49.5	49.5	49.5	77	42.6	0	0	---	0.00	30.085 
20:05	49.6	49.6	49.6	78	43.0	0	1	315	0.00	30.085 
20:10	49.6	49.6	49.6	78	43.0	0	1	315	0.00	30.085 
20:15	49.6	49.6	49.6	78	43.0	0	0	---	0.00	30.085 
20:20	49.6	49.6	49.6	78	43.0	0	0	---	0.00	30.085 
20:25	49.5	49.5	49.5	78	42.9	0	1	315	0.00	30.085 
20:30	49.4	49.4	49.4	78	42.8	0	1	315	0.00	30.089 
20:35	49.2	49.2	49.2	78	42.6	0	1	315	0.00	30.089 
20:40	49.2	49.2	49.2	79	43.0	0	1	315	0.00	30.089 
20:45	49.2	49.2	49.2	79	43.0	0	1	315	0.00	30.099 
20:50	49.1	49.1	49.1	79	42.9	0	1	315	0.00	30.099 
20:55	49.1	49.1	49.1	79	42.9	0	2	315	0.00	30.099 
21:00	49.1	49.1	49.1	79	42.9	0	1	315	0.00	30.102 
21:05	49.1	49.1	49.1	79	42.9	0	0	---	0.00	30.102 
21:10	48.9	48.9	48.9	80	43.0	0	1	315	0.00	30.102 
21:15	48.9	48.9	48.9	80	43.0	0	1	315	0.00	30.109 
21:20	48.9	48.9	48.9	81	43.3	0	1	315	0.00	30.109 
21:25	48.8	48.8	48.8	81	43.2	0	1	315	0.00	30.109 
21:30	48.8	48.8	48.8	81	43.2	0	0	---	0.00	30.113 
21:35	48.6	48.6	48.6	81	43.0	0	1	315	0.00	30.113 
21:40	48.6	48.6	48.6	82	43.4	0	1	315	0.00	30.113 
21:45	48.6	48.6	48.6	82	43.4	0	1	315	0.00	30.117 
21:50	48.5	48.5	48.5	82	43.3	0	0	---	0.00	30.117 
21:55	48.5	48.5	48.5	83	43.6	0	1	315	0.00	30.117 
22:00	48.3	48.3	48.3	83	43.4	0	1	315	0.00	30.117 
22:05	48.5	48.5	48.5	84	43.9	0	1	315	0.00	30.117 
22:10	48.5	48.5	48.5	84	43.9	0	1	315	0.00	30.117 
22:15	48.5	48.5	48.5	84	43.9	0	1	315	0.00	30.117 
22:20	48.6	48.6	48.6	84	44.0	0	1	315	0.00	30.117 
22:25	48.8	48.8	48.8	84	44.2	0	1	315	0.00	30.117 
22:30	48.8	48.8	48.8	84	44.2	0	1	315	0.00	30.117 
22:35	48.8	48.8	48.8	83	43.9	0	1	315	0.00	30.117 
22:40	48.8	48.8	48.8	83	43.9	0	1	315	0.00	30.117 
22:45	48.8	48.8	48.8	83	43.9	0	1	315	0.00	30.119 
22:50	48.8	48.8	48.8	83	43.9	0	2	315	0.00	30.119 
22:55	48.6	48.6	48.6	83	43.7	0	1	315	0.00	30.119 
23:00	48.6	48.6	48.6	83	43.7	0	1	315	0.00	30.126 
23:05	48.6	48.6	48.6	83	43.7	0	1	315	0.00	30.126 
23:10	48.5	48.5	48.5	83	43.6	0	1	315	0.00	30.126 
23:15	48.5	48.5	48.5	83	43.6	0	1	315	0.00	30.125 
23:20	48.5	48.5	48.5	83	43.6	0	1	315	0.00	30.125 
23:25	48.5	48.5	48.5	83	43.6	0	1	315	0.00	30.125 
23:30	48.5	48.5	48.5	83	43.6	0	1	315	0.00	30.128 
23:35	48.3	48.3	48.3	83	43.4	0	1	315	0.00	30.128 
23:40	48.2	48.2	48.2	83	43.3	0	0	---	0.00	30.128 
23:45	48.0	48.0	48.0	83	43.1	0	0	---	0.00	30.129 
23:50	47.7	47.7	47.7	84	43.1	0	0	---	0.00	30.129 
23:55	47.6	47.6	47.6	84	43.0	0	0	---	0.00	30.129 

CoCoRaHS
IN-AL-39
A2 Web Hosting
Creative Commons License
GoDaddy
search engine by freefind advanced

loaded 2018-11-17 22:49:50 • last modified 2010-11-18 10:43:29
Privacy PolicyDisclaimer
• wx.awcolley.com is powered by PmWiki v.2002016 •
• all content (unless otherwise noted) © 2018 A W Colley